sensor_id;sensor_type;location;lat;lon;timestamp;temperature;humidity
76203;DHT22;64985;46.364;17.008;2023-04-24T00:00:04;12.60;99.90
76203;DHT22;64985;46.364;17.008;2023-04-24T00:03:12;13.00;97.80
76203;DHT22;64985;46.364;17.008;2023-04-24T00:06:15;13.10;97.70
76203;DHT22;64985;46.364;17.008;2023-04-24T00:09:18;13.40;98.10
76203;DHT22;64985;46.364;17.008;2023-04-24T00:12:20;13.20;99.00
76203;DHT22;64985;46.364;17.008;2023-04-24T00:15:23;13.00;99.90
76203;DHT22;64985;46.364;17.008;2023-04-24T00:18:25;12.80;99.90
76203;DHT22;64985;46.364;17.008;2023-04-24T00:21:27;12.60;99.90
76203;DHT22;64985;46.364;17.008;2023-04-24T00:24:29;12.50;98.10
76203;DHT22;64985;46.364;17.008;2023-04-24T00:27:31;12.60;94.30
76203;DHT22;64985;46.364;17.008;2023-04-24T00:30:33;12.90;97.60
76203;DHT22;64985;46.364;17.008;2023-04-24T00:33:36;12.80;93.60
76203;DHT22;64985;46.364;17.008;2023-04-24T00:36:38;12.90;98.00
76203;DHT22;64985;46.364;17.008;2023-04-24T00:39:40;12.70;99.90
76203;DHT22;64985;46.364;17.008;2023-04-24T00:42:43;12.50;99.90
76203;DHT22;64985;46.364;17.008;2023-04-24T00:45:46;12.40;99.90
76203;DHT22;64985;46.364;17.008;2023-04-24T00:48:48;12.30;99.90
76203;DHT22;64985;46.364;17.008;2023-04-24T00:51:50;12.20;99.90
76203;DHT22;64985;46.364;17.008;2023-04-24T00:54:53;12.10;99.90
76203;DHT22;64985;46.364;17.008;2023-04-24T00:57:55;11.90;99.90
76203;DHT22;64985;46.364;17.008;2023-04-24T01:00:57;11.80;99.90
76203;DHT22;64985;46.364;17.008;2023-04-24T01:04:00;11.70;99.90
76203;DHT22;64985;46.364;17.008;2023-04-24T01:07:04;11.50;99.90
76203;DHT22;64985;46.364;17.008;2023-04-24T01:10:13;11.40;99.90
76203;DHT22;64985;46.364;17.008;2023-04-24T01:13:16;11.10;99.90
76203;DHT22;64985;46.364;17.008;2023-04-24T01:16:18;11.00;99.90
76203;DHT22;64985;46.364;17.008;2023-04-24T01:19:23;10.70;99.90
76203;DHT22;64985;46.364;17.008;2023-04-24T01:22:25;10.60;99.90
76203;DHT22;64985;46.364;17.008;2023-04-24T01:25:28;10.50;99.90
76203;DHT22;64985;46.364;17.008;2023-04-24T01:28:30;10.30;99.90
76203;DHT22;64985;46.364;17.008;2023-04-24T01:31:33;10.10;99.90
76203;DHT22;64985;46.364;17.008;2023-04-24T01:34:35;10.00;99.90
76203;DHT22;64985;46.364;17.008;2023-04-24T01:37:37;9.90;99.90
76203;DHT22;64985;46.364;17.008;2023-04-24T01:40:39;9.80;99.90
76203;DHT22;64985;46.364;17.008;2023-04-24T01:43:42;9.80;99.90
76203;DHT22;64985;46.364;17.008;2023-04-24T01:46:44;9.80;99.90
76203;DHT22;64985;46.364;17.008;2023-04-24T01:49:48;9.80;99.90
76203;DHT22;64985;46.364;17.008;2023-04-24T01:52:50;9.90;99.90
76203;DHT22;64985;46.364;17.008;2023-04-24T01:55:52;9.80;99.90
76203;DHT22;64985;46.364;17.008;2023-04-24T01:58:54;9.90;99.90
76203;DHT22;64985;46.364;17.008;2023-04-24T02:01:57;9.90;99.90
76203;DHT22;64985;46.364;17.008;2023-04-24T02:04:59;10.00;99.90
76203;DHT22;64985;46.364;17.008;2023-04-24T02:08:01;9.90;99.90
76203;DHT22;64985;46.364;17.008;2023-04-24T02:11:03;10.00;99.90
76203;DHT22;64985;46.364;17.008;2023-04-24T02:14:06;10.00;99.90
76203;DHT22;64985;46.364;17.008;2023-04-24T02:17:08;10.00;99.90
76203;DHT22;64985;46.364;17.008;2023-04-24T02:20:10;10.20;99.90
76203;DHT22;64985;46.364;17.008;2023-04-24T02:23:12;10.40;99.90
76203;DHT22;64985;46.364;17.008;2023-04-24T02:26:15;10.60;99.90
76203;DHT22;64985;46.364;17.008;2023-04-24T02:29:18;10.80;99.90
76203;DHT22;64985;46.364;17.008;2023-04-24T02:32:20;10.80;99.90
76203;DHT22;64985;46.364;17.008;2023-04-24T02:35:22;10.70;99.90
76203;DHT22;64985;46.364;17.008;2023-04-24T02:38:24;10.60;99.90
76203;DHT22;64985;46.364;17.008;2023-04-24T02:41:26;10.60;99.90
76203;DHT22;64985;46.364;17.008;2023-04-24T02:44:33;10.50;99.90
76203;DHT22;64985;46.364;17.008;2023-04-24T02:47:35;10.60;99.90
76203;DHT22;64985;46.364;17.008;2023-04-24T02:50:38;10.60;99.90
76203;DHT22;64985;46.364;17.008;2023-04-24T02:53:40;10.60;99.90
76203;DHT22;64985;46.364;17.008;2023-04-24T02:56:42;10.50;99.90
76203;DHT22;64985;46.364;17.008;2023-04-24T02:59:45;10.30;99.90
76203;DHT22;64985;46.364;17.008;2023-04-24T03:02:47;10.20;99.90
76203;DHT22;64985;46.364;17.008;2023-04-24T03:05:50;10.10;99.90
76203;DHT22;64985;46.364;17.008;2023-04-24T03:08:53;9.90;99.90
76203;DHT22;64985;46.364;17.008;2023-04-24T03:11:55;9.80;99.90
76203;DHT22;64985;46.364;17.008;2023-04-24T03:14:58;9.80;99.90
76203;DHT22;64985;46.364;17.008;2023-04-24T03:18:00;9.80;99.90
76203;DHT22;64985;46.364;17.008;2023-04-24T03:21:02;9.80;99.90
76203;DHT22;64985;46.364;17.008;2023-04-24T03:24:05;9.90;99.90
76203;DHT22;64985;46.364;17.008;2023-04-24T03:27:07;10.30;99.90
76203;DHT22;64985;46.364;17.008;2023-04-24T03:30:10;10.70;99.90
76203;DHT22;64985;46.364;17.008;2023-04-24T03:33:12;11.10;99.90
76203;DHT22;64985;46.364;17.008;2023-04-24T03:36:14;11.40;99.90
76203;DHT22;64985;46.364;17.008;2023-04-24T03:39:16;11.50;99.90
76203;DHT22;64985;46.364;17.008;2023-04-24T03:42:19;11.60;99.90
76203;DHT22;64985;46.364;17.008;2023-04-24T03:45:21;11.70;99.90
76203;DHT22;64985;46.364;17.008;2023-04-24T03:48:23;11.90;99.90
76203;DHT22;64985;46.364;17.008;2023-04-24T03:51:26;11.80;99.90
76203;DHT22;64985;46.364;17.008;2023-04-24T03:54:30;11.50;99.90
76203;DHT22;64985;46.364;17.008;2023-04-24T03:57:32;11.50;99.90
76203;DHT22;64985;46.364;17.008;2023-04-24T04:00:34;11.70;99.90
76203;DHT22;64985;46.364;17.008;2023-04-24T04:03:36;11.80;99.90
76203;DHT22;64985;46.364;17.008;2023-04-24T04:06:39;11.80;99.90
76203;DHT22;64985;46.364;17.008;2023-04-24T04:09:41;11.80;99.90
76203;DHT22;64985;46.364;17.008;2023-04-24T04:12:43;11.60;99.90
76203;DHT22;64985;46.364;17.008;2023-04-24T04:15:45;11.60;99.90
76203;DHT22;64985;46.364;17.008;2023-04-24T04:18:48;11.70;99.90
76203;DHT22;64985;46.364;17.008;2023-04-24T04:21:50;11.80;99.90
76203;DHT22;64985;46.364;17.008;2023-04-24T04:24:54;11.90;99.90
76203;DHT22;64985;46.364;17.008;2023-04-24T04:27:56;12.10;99.70
76203;DHT22;64985;46.364;17.008;2023-04-24T04:31:01;12.20;98.90
76203;DHT22;64985;46.364;17.008;2023-04-24T04:34:03;12.20;98.40
76203;DHT22;64985;46.364;17.008;2023-04-24T04:37:05;12.30;99.30
76203;DHT22;64985;46.364;17.008;2023-04-24T04:40:08;12.40;99.60
76203;DHT22;64985;46.364;17.008;2023-04-24T04:43:14;12.40;99.90
76203;DHT22;64985;46.364;17.008;2023-04-24T04:46:17;12.50;98.40
76203;DHT22;64985;46.364;17.008;2023-04-24T04:49:20;12.70;96.60
76203;DHT22;64985;46.364;17.008;2023-04-24T04:52:23;12.70;97.00
76203;DHT22;64985;46.364;17.008;2023-04-24T04:55:27;12.80;98.00
76203;DHT22;64985;46.364;17.008;2023-04-24T04:58:30;12.80;98.30
76203;DHT22;64985;46.364;17.008;2023-04-24T05:01:32;12.90;97.60
76203;DHT22;64985;46.364;17.008;2023-04-24T05:04:34;12.90;95.90
76203;DHT22;64985;46.364;17.008;2023-04-24T05:07:37;13.00;95.70
76203;DHT22;64985;46.364;17.008;2023-04-24T05:10:39;13.20;96.50
76203;DHT22;64985;46.364;17.008;2023-04-24T05:13:41;13.10;97.70
76203;DHT22;64985;46.364;17.008;2023-04-24T05:16:43;13.10;97.50
76203;DHT22;64985;46.364;17.008;2023-04-24T05:19:45;13.30;97.10
76203;DHT22;64985;46.364;17.008;2023-04-24T05:22:48;13.30;94.90
76203;DHT22;64985;46.364;17.008;2023-04-24T05:25:50;13.40;97.40
76203;DHT22;64985;46.364;17.008;2023-04-24T05:28:52;13.40;95.60
76203;DHT22;64985;46.364;17.008;2023-04-24T05:31:54;13.40;96.60
76203;DHT22;64985;46.364;17.008;2023-04-24T05:34:57;13.50;98.10
76203;DHT22;64985;46.364;17.008;2023-04-24T05:37:59;13.40;97.00
76203;DHT22;64985;46.364;17.008;2023-04-24T05:41:01;13.50;97.50
76203;DHT22;64985;46.364;17.008;2023-04-24T05:44:04;13.50;95.70
76203;DHT22;64985;46.364;17.008;2023-04-24T05:47:06;13.60;96.50
76203;DHT22;64985;46.364;17.008;2023-04-24T05:50:09;13.60;95.30
76203;DHT22;64985;46.364;17.008;2023-04-24T05:53:11;13.60;97.00
76203;DHT22;64985;46.364;17.008;2023-04-24T05:56:14;13.70;96.30
76203;DHT22;64985;46.364;17.008;2023-04-24T05:59:17;13.70;94.40
76203;DHT22;64985;46.364;17.008;2023-04-24T06:02:19;13.80;96.90
76203;DHT22;64985;46.364;17.008;2023-04-24T06:05:21;13.90;94.50
76203;DHT22;64985;46.364;17.008;2023-04-24T06:08:24;13.80;93.70
76203;DHT22;64985;46.364;17.008;2023-04-24T06:11:27;13.90;92.40
76203;DHT22;64985;46.364;17.008;2023-04-24T06:14:29;13.90;96.60
76203;DHT22;64985;46.364;17.008;2023-04-24T06:17:32;14.00;95.90
76203;DHT22;64985;46.364;17.008;2023-04-24T06:20:35;14.00;95.30
76203;DHT22;64985;46.364;17.008;2023-04-24T06:23:37;14.40;93.40
76203;DHT22;64985;46.364;17.008;2023-04-24T06:26:39;14.60;91.50
76203;DHT22;64985;46.364;17.008;2023-04-24T06:29:41;14.50;92.50
76203;DHT22;64985;46.364;17.008;2023-04-24T06:32:44;14.80;87.80
76203;DHT22;64985;46.364;17.008;2023-04-24T06:35:47;15.20;80.90
76203;DHT22;64985;46.364;17.008;2023-04-24T06:38:49;15.70;79.00
76203;DHT22;64985;46.364;17.008;2023-04-24T06:41:51;16.10;72.80
76203;DHT22;64985;46.364;17.008;2023-04-24T06:44:53;15.80;78.30
76203;DHT22;64985;46.364;17.008;2023-04-24T06:47:55;16.00;86.80
76203;DHT22;64985;46.364;17.008;2023-04-24T06:50:58;16.20;79.60
76203;DHT22;64985;46.364;17.008;2023-04-24T06:54:00;16.00;74.70
76203;DHT22;64985;46.364;17.008;2023-04-24T06:57:02;16.20;74.00
76203;DHT22;64985;46.364;17.008;2023-04-24T07:00:05;16.20;71.70
76203;DHT22;64985;46.364;17.008;2023-04-24T07:03:08;16.40;74.60
76203;DHT22;64985;46.364;17.008;2023-04-24T07:06:11;16.60;70.20
76203;DHT22;64985;46.364;17.008;2023-04-24T07:09:13;16.70;76.40
76203;DHT22;64985;46.364;17.008;2023-04-24T07:12:16;16.60;70.80
76203;DHT22;64985;46.364;17.008;2023-04-24T07:15:19;16.60;67.40
76203;DHT22;64985;46.364;17.008;2023-04-24T07:18:22;16.50;66.40
76203;DHT22;64985;46.364;17.008;2023-04-24T07:21:24;16.40;61.20
76203;DHT22;64985;46.364;17.008;2023-04-24T07:24:27;16.20;61.80
76203;DHT22;64985;46.364;17.008;2023-04-24T07:27:31;16.40;60.40
76203;DHT22;64985;46.364;17.008;2023-04-24T07:30:33;16.50;62.20
76203;DHT22;64985;46.364;17.008;2023-04-24T07:33:35;16.50;63.30
76203;DHT22;64985;46.364;17.008;2023-04-24T07:36:38;16.60;61.70
76203;DHT22;64985;46.364;17.008;2023-04-24T07:39:40;16.70;64.30
76203;DHT22;64985;46.364;17.008;2023-04-24T07:42:43;17.00;63.40
76203;DHT22;64985;46.364;17.008;2023-04-24T07:45:45;17.20;61.20
76203;DHT22;64985;46.364;17.008;2023-04-24T07:48:47;17.60;59.60
76203;DHT22;64985;46.364;17.008;2023-04-24T07:52:06;17.30;60.10
76203;DHT22;64985;46.364;17.008;2023-04-24T07:55:08;17.40;60.60
76203;DHT22;64985;46.364;17.008;2023-04-24T07:58:10;17.40;63.10
76203;DHT22;64985;46.364;17.008;2023-04-24T08:01:12;17.50;61.50
76203;DHT22;64985;46.364;17.008;2023-04-24T08:04:15;17.50;59.90
76203;DHT22;64985;46.364;17.008;2023-04-24T08:07:17;17.40;61.80
76203;DHT22;64985;46.364;17.008;2023-04-24T08:10:20;17.10;62.30
76203;DHT22;64985;46.364;17.008;2023-04-24T08:13:22;17.00;64.50
76203;DHT22;64985;46.364;17.008;2023-04-24T08:16:24;16.80;62.50
76203;DHT22;64985;46.364;17.008;2023-04-24T08:19:26;16.70;62.00
76203;DHT22;64985;46.364;17.008;2023-04-24T08:22:28;16.50;63.70
76203;DHT22;64985;46.364;17.008;2023-04-24T08:25:31;16.40;70.00
76203;DHT22;64985;46.364;17.008;2023-04-24T08:28:33;16.20;65.60
76203;DHT22;64985;46.364;17.008;2023-04-24T08:31:35;16.10;66.70
76203;DHT22;64985;46.364;17.008;2023-04-24T08:34:37;16.10;68.50
76203;DHT22;64985;46.364;17.008;2023-04-24T08:37:39;16.20;68.60
76203;DHT22;64985;46.364;17.008;2023-04-24T08:40:42;16.20;70.10
76203;DHT22;64985;46.364;17.008;2023-04-24T08:43:48;16.10;72.40
76203;DHT22;64985;46.364;17.008;2023-04-24T08:46:52;15.90;72.90
76203;DHT22;64985;46.364;17.008;2023-04-24T08:49:56;15.90;80.60
76203;DHT22;64985;46.364;17.008;2023-04-24T08:53:01;16.10;73.50
76203;DHT22;64985;46.364;17.008;2023-04-24T08:56:06;16.30;75.30
76203;DHT22;64985;46.364;17.008;2023-04-24T08:59:09;16.50;74.00
76203;DHT22;64985;46.364;17.008;2023-04-24T09:02:12;16.50;78.60
76203;DHT22;64985;46.364;17.008;2023-04-24T09:05:17;16.50;85.20
76203;DHT22;64985;46.364;17.008;2023-04-24T09:08:20;16.70;75.70
76203;DHT22;64985;46.364;17.008;2023-04-24T09:11:24;16.80;77.20
76203;DHT22;64985;46.364;17.008;2023-04-24T09:14:31;17.00;86.00
76203;DHT22;64985;46.364;17.008;2023-04-24T09:17:34;17.30;75.00
76203;DHT22;64985;46.364;17.008;2023-04-24T09:24:07;18.20;71.40
76203;DHT22;64985;46.364;17.008;2023-04-24T09:27:11;18.90;69.10
76203;DHT22;64985;46.364;17.008;2023-04-24T09:30:21;19.10;61.40
76203;DHT22;64985;46.364;17.008;2023-04-24T09:33:24;18.80;64.20
76203;DHT22;64985;46.364;17.008;2023-04-24T09:36:34;18.40;60.20
76203;DHT22;64985;46.364;17.008;2023-04-24T09:39:38;18.20;58.40
76203;DHT22;64985;46.364;17.008;2023-04-24T09:42:46;18.00;59.00
76203;DHT22;64985;46.364;17.008;2023-04-24T09:45:56;18.30;62.40
76203;DHT22;64985;46.364;17.008;2023-04-24T09:49:12;18.40;58.70
76203;DHT22;64985;46.364;17.008;2023-04-24T09:52:15;17.80;60.80
76203;DHT22;64985;46.364;17.008;2023-04-24T09:55:19;17.30;64.80
76203;DHT22;64985;46.364;17.008;2023-04-24T09:58:25;17.00;69.90
76203;DHT22;64985;46.364;17.008;2023-04-24T10:01:32;16.70;90.20
76203;DHT22;64985;46.364;17.008;2023-04-24T10:04:34;16.50;94.60
76203;DHT22;64985;46.364;17.008;2023-04-24T10:07:37;16.20;99.90
76203;DHT22;64985;46.364;17.008;2023-04-24T10:10:44;16.10;99.90
76203;DHT22;64985;46.364;17.008;2023-04-24T10:13:47;15.90;99.90
76203;DHT22;64985;46.364;17.008;2023-04-24T10:16:51;15.80;99.90
76203;DHT22;64985;46.364;17.008;2023-04-24T10:19:54;15.70;99.90
76203;DHT22;64985;46.364;17.008;2023-04-24T10:22:58;15.60;99.90
76203;DHT22;64985;46.364;17.008;2023-04-24T10:26:01;15.70;99.90
76203;DHT22;64985;46.364;17.008;2023-04-24T10:29:05;15.70;99.90
76203;DHT22;64985;46.364;17.008;2023-04-24T10:32:11;15.60;99.90
76203;DHT22;64985;46.364;17.008;2023-04-24T10:35:15;15.60;99.90
76203;DHT22;64985;46.364;17.008;2023-04-24T10:38:22;15.60;99.90
76203;DHT22;64985;46.364;17.008;2023-04-24T10:41:26;15.50;99.90
76203;DHT22;64985;46.364;17.008;2023-04-24T10:44:36;15.40;99.90
76203;DHT22;64985;46.364;17.008;2023-04-24T10:47:41;15.40;99.90
76203;DHT22;64985;46.364;17.008;2023-04-24T10:50:46;15.30;99.90
76203;DHT22;64985;46.364;17.008;2023-04-24T10:53:52;15.20;99.90
76203;DHT22;64985;46.364;17.008;2023-04-24T11:00:24;15.20;99.90
76203;DHT22;64985;46.364;17.008;2023-04-24T11:03:31;15.30;99.90
76203;DHT22;64985;46.364;17.008;2023-04-24T11:06:37;15.20;99.90
76203;DHT22;64985;46.364;17.008;2023-04-24T11:09:42;15.30;99.90
76203;DHT22;64985;46.364;17.008;2023-04-24T11:12:45;15.20;99.90
76203;DHT22;64985;46.364;17.008;2023-04-24T11:16:26;15.10;99.90
76203;DHT22;64985;46.364;17.008;2023-04-24T11:19:33;14.90;99.90
76203;DHT22;64985;46.364;17.008;2023-04-24T11:22:38;14.70;99.90
76203;DHT22;64985;46.364;17.008;2023-04-24T11:25:41;14.50;99.90
76203;DHT22;64985;46.364;17.008;2023-04-24T11:28:49;14.40;99.90
76203;DHT22;64985;46.364;17.008;2023-04-24T11:31:52;14.30;99.90
76203;DHT22;64985;46.364;17.008;2023-04-24T11:34:58;14.30;99.90
76203;DHT22;64985;46.364;17.008;2023-04-24T11:38:01;14.30;99.90
76203;DHT22;64985;46.364;17.008;2023-04-24T11:41:25;14.30;99.90
76203;DHT22;64985;46.364;17.008;2023-04-24T11:44:28;14.40;99.90
76203;DHT22;64985;46.364;17.008;2023-04-24T11:47:31;14.40;99.90
76203;DHT22;64985;46.364;17.008;2023-04-24T11:50:35;14.40;99.90
76203;DHT22;64985;46.364;17.008;2023-04-24T11:53:38;14.40;99.90
76203;DHT22;64985;46.364;17.008;2023-04-24T11:56:45;14.40;99.90
76203;DHT22;64985;46.364;17.008;2023-04-24T11:59:48;14.50;99.90
76203;DHT22;64985;46.364;17.008;2023-04-24T12:02:50;14.50;99.90
76203;DHT22;64985;46.364;17.008;2023-04-24T12:06:04;14.50;99.90
76203;DHT22;64985;46.364;17.008;2023-04-24T12:09:08;14.40;99.90
76203;DHT22;64985;46.364;17.008;2023-04-24T12:12:19;14.40;99.90
76203;DHT22;64985;46.364;17.008;2023-04-24T12:15:21;14.40;99.90
76203;DHT22;64985;46.364;17.008;2023-04-24T12:18:24;14.30;99.90
76203;DHT22;64985;46.364;17.008;2023-04-24T12:21:26;14.30;99.90
76203;DHT22;64985;46.364;17.008;2023-04-24T12:24:31;14.40;99.90
76203;DHT22;64985;46.364;17.008;2023-04-24T12:27:33;14.40;99.90
76203;DHT22;64985;46.364;17.008;2023-04-24T12:30:43;14.50;99.90
76203;DHT22;64985;46.364;17.008;2023-04-24T12:33:50;14.70;99.90
76203;DHT22;64985;46.364;17.008;2023-04-24T12:36:53;14.90;99.90
76203;DHT22;64985;46.364;17.008;2023-04-24T12:43:14;15.00;99.90
76203;DHT22;64985;46.364;17.008;2023-04-24T12:46:17;15.10;99.90
76203;DHT22;64985;46.364;17.008;2023-04-24T12:49:23;15.30;99.90
76203;DHT22;64985;46.364;17.008;2023-04-24T12:52:27;15.50;99.90
76203;DHT22;64985;46.364;17.008;2023-04-24T12:55:29;15.40;99.90
76203;DHT22;64985;46.364;17.008;2023-04-24T12:58:31;15.40;99.90
76203;DHT22;64985;46.364;17.008;2023-04-24T13:01:34;15.50;99.90
76203;DHT22;64985;46.364;17.008;2023-04-24T13:04:37;15.40;99.90
76203;DHT22;64985;46.364;17.008;2023-04-24T13:07:39;15.50;99.90
76203;DHT22;64985;46.364;17.008;2023-04-24T13:10:42;15.50;99.90
76203;DHT22;64985;46.364;17.008;2023-04-24T13:13:44;15.40;99.90
76203;DHT22;64985;46.364;17.008;2023-04-24T13:16:46;15.00;99.90
76203;DHT22;64985;46.364;17.008;2023-04-24T13:19:50;14.90;99.90
76203;DHT22;64985;46.364;17.008;2023-04-24T13:22:53;14.80;99.90
76203;DHT22;64985;46.364;17.008;2023-04-24T13:25:55;14.80;99.90
76203;DHT22;64985;46.364;17.008;2023-04-24T13:29:00;15.00;99.90
76203;DHT22;64985;46.364;17.008;2023-04-24T13:32:02;15.20;99.90
76203;DHT22;64985;46.364;17.008;2023-04-24T13:35:05;15.20;99.90
76203;DHT22;64985;46.364;17.008;2023-04-24T13:38:07;15.20;99.90
76203;DHT22;64985;46.364;17.008;2023-04-24T13:41:13;15.00;99.90
76203;DHT22;64985;46.364;17.008;2023-04-24T13:44:16;14.90;99.90
76203;DHT22;64985;46.364;17.008;2023-04-24T13:47:18;14.90;99.90
76203;DHT22;64985;46.364;17.008;2023-04-24T13:50:21;14.70;99.90
76203;DHT22;64985;46.364;17.008;2023-04-24T13:53:23;14.70;99.90
76203;DHT22;64985;46.364;17.008;2023-04-24T13:56:26;14.80;99.90
76203;DHT22;64985;46.364;17.008;2023-04-24T13:59:28;14.90;99.90
76203;DHT22;64985;46.364;17.008;2023-04-24T14:02:30;15.20;99.90
76203;DHT22;64985;46.364;17.008;2023-04-24T14:05:32;15.40;99.90
76203;DHT22;64985;46.364;17.008;2023-04-24T14:08:34;15.60;99.90
76203;DHT22;64985;46.364;17.008;2023-04-24T14:11:37;16.00;99.90
76203;DHT22;64985;46.364;17.008;2023-04-24T14:14:39;16.30;99.90
76203;DHT22;64985;46.364;17.008;2023-04-24T14:17:41;16.60;99.90
76203;DHT22;64985;46.364;17.008;2023-04-24T14:20:44;16.80;99.90
76203;DHT22;64985;46.364;17.008;2023-04-24T14:23:47;16.90;99.90
76203;DHT22;64985;46.364;17.008;2023-04-24T14:26:49;17.00;99.90
76203;DHT22;64985;46.364;17.008;2023-04-24T14:29:51;16.90;99.90
76203;DHT22;64985;46.364;17.008;2023-04-24T14:32:53;16.90;99.90
76203;DHT22;64985;46.364;17.008;2023-04-24T14:35:56;16.70;99.90
76203;DHT22;64985;46.364;17.008;2023-04-24T14:38:58;16.70;99.90
76203;DHT22;64985;46.364;17.008;2023-04-24T14:42:00;16.60;99.90
76203;DHT22;64985;46.364;17.008;2023-04-24T14:45:03;16.40;99.90
76203;DHT22;64985;46.364;17.008;2023-04-24T14:48:05;16.40;99.90
76203;DHT22;64985;46.364;17.008;2023-04-24T14:51:07;16.20;99.90
76203;DHT22;64985;46.364;17.008;2023-04-24T14:54:10;16.10;99.90
76203;DHT22;64985;46.364;17.008;2023-04-24T14:57:12;15.90;99.90
76203;DHT22;64985;46.364;17.008;2023-04-24T15:00:17;15.90;99.90
76203;DHT22;64985;46.364;17.008;2023-04-24T15:03:20;16.00;99.90
76203;DHT22;64985;46.364;17.008;2023-04-24T15:06:23;15.90;99.90
76203;DHT22;64985;46.364;17.008;2023-04-24T15:09:26;15.90;99.90
76203;DHT22;64985;46.364;17.008;2023-04-24T15:12:29;15.70;99.90
76203;DHT22;64985;46.364;17.008;2023-04-24T15:15:31;15.60;99.90
76203;DHT22;64985;46.364;17.008;2023-04-24T15:18:34;15.50;99.90
76203;DHT22;64985;46.364;17.008;2023-04-24T15:21:37;15.50;99.90
76203;DHT22;64985;46.364;17.008;2023-04-24T15:24:39;15.40;99.90
76203;DHT22;64985;46.364;17.008;2023-04-24T15:27:43;15.30;99.90
76203;DHT22;64985;46.364;17.008;2023-04-24T15:30:45;15.10;99.90
76203;DHT22;64985;46.364;17.008;2023-04-24T15:33:47;15.10;99.90
76203;DHT22;64985;46.364;17.008;2023-04-24T15:36:51;14.90;99.90
76203;DHT22;64985;46.364;17.008;2023-04-24T15:39:53;14.90;99.90
76203;DHT22;64985;46.364;17.008;2023-04-24T15:42:55;14.80;99.90
76203;DHT22;64985;46.364;17.008;2023-04-24T15:45:57;14.70;99.90
76203;DHT22;64985;46.364;17.008;2023-04-24T15:49:00;14.60;99.90
76203;DHT22;64985;46.364;17.008;2023-04-24T15:52:02;14.40;99.90
76203;DHT22;64985;46.364;17.008;2023-04-24T15:55:04;14.30;99.90
76203;DHT22;64985;46.364;17.008;2023-04-24T15:58:07;14.20;99.90
76203;DHT22;64985;46.364;17.008;2023-04-24T16:01:09;14.00;99.90
76203;DHT22;64985;46.364;17.008;2023-04-24T16:04:12;13.60;99.90
76203;DHT22;64985;46.364;17.008;2023-04-24T16:07:15;13.10;99.90
76203;DHT22;64985;46.364;17.008;2023-04-24T16:10:19;12.80;99.90
76203;DHT22;64985;46.364;17.008;2023-04-24T16:13:21;12.50;99.90
76203;DHT22;64985;46.364;17.008;2023-04-24T16:16:23;12.30;99.90
76203;DHT22;64985;46.364;17.008;2023-04-24T16:19:26;12.20;99.90
76203;DHT22;64985;46.364;17.008;2023-04-24T16:22:28;12.00;99.90
76203;DHT22;64985;46.364;17.008;2023-04-24T16:25:31;12.00;99.90
76203;DHT22;64985;46.364;17.008;2023-04-24T16:28:33;12.00;99.90
76203;DHT22;64985;46.364;17.008;2023-04-24T16:31:36;12.00;99.90
76203;DHT22;64985;46.364;17.008;2023-04-24T16:34:38;11.90;99.90
76203;DHT22;64985;46.364;17.008;2023-04-24T16:37:40;11.90;99.90
76203;DHT22;64985;46.364;17.008;2023-04-24T16:40:43;11.80;99.90
76203;DHT22;64985;46.364;17.008;2023-04-24T16:43:46;11.80;99.90
76203;DHT22;64985;46.364;17.008;2023-04-24T16:46:49;11.70;99.90
76203;DHT22;64985;46.364;17.008;2023-04-24T16:49:51;11.70;99.90
76203;DHT22;64985;46.364;17.008;2023-04-24T16:52:53;11.70;99.90
76203;DHT22;64985;46.364;17.008;2023-04-24T16:55:56;11.60;99.90
76203;DHT22;64985;46.364;17.008;2023-04-24T16:58:58;11.60;99.90
76203;DHT22;64985;46.364;17.008;2023-04-24T17:02:00;11.50;99.90
76203;DHT22;64985;46.364;17.008;2023-04-24T17:05:03;11.50;99.90
76203;DHT22;64985;46.364;17.008;2023-04-24T17:08:06;11.40;99.90
76203;DHT22;64985;46.364;17.008;2023-04-24T17:11:08;11.40;99.90
76203;DHT22;64985;46.364;17.008;2023-04-24T17:14:12;11.40;99.90
76203;DHT22;64985;46.364;17.008;2023-04-24T17:17:14;11.30;99.90
76203;DHT22;64985;46.364;17.008;2023-04-24T17:20:17;11.30;99.90
76203;DHT22;64985;46.364;17.008;2023-04-24T17:23:24;11.20;99.90
76203;DHT22;64985;46.364;17.008;2023-04-24T17:26:27;11.20;99.90
76203;DHT22;64985;46.364;17.008;2023-04-24T17:29:31;11.20;99.90
76203;DHT22;64985;46.364;17.008;2023-04-24T17:32:34;11.20;99.90
76203;DHT22;64985;46.364;17.008;2023-04-24T17:35:36;11.20;99.90
76203;DHT22;64985;46.364;17.008;2023-04-24T17:38:40;11.20;99.90
76203;DHT22;64985;46.364;17.008;2023-04-24T17:41:43;11.20;99.90
76203;DHT22;64985;46.364;17.008;2023-04-24T17:44:45;11.20;99.90
76203;DHT22;64985;46.364;17.008;2023-04-24T17:47:48;11.10;99.90
76203;DHT22;64985;46.364;17.008;2023-04-24T17:50:53;11.10;99.90
76203;DHT22;64985;46.364;17.008;2023-04-24T17:53:58;11.20;99.90
76203;DHT22;64985;46.364;17.008;2023-04-24T17:57:08;11.10;99.90
76203;DHT22;64985;46.364;17.008;2023-04-24T18:00:11;11.10;99.90
76203;DHT22;64985;46.364;17.008;2023-04-24T18:03:15;11.10;99.90
76203;DHT22;64985;46.364;17.008;2023-04-24T18:06:17;11.10;99.90
76203;DHT22;64985;46.364;17.008;2023-04-24T18:09:21;11.10;99.90
76203;DHT22;64985;46.364;17.008;2023-04-24T18:12:24;11.10;99.90
76203;DHT22;64985;46.364;17.008;2023-04-24T18:15:27;11.10;99.90
76203;DHT22;64985;46.364;17.008;2023-04-24T18:18:30;11.00;99.90
76203;DHT22;64985;46.364;17.008;2023-04-24T18:21:32;11.00;99.90
76203;DHT22;64985;46.364;17.008;2023-04-24T18:24:35;11.00;99.90
76203;DHT22;64985;46.364;17.008;2023-04-24T18:27:39;11.00;99.90
76203;DHT22;64985;46.364;17.008;2023-04-24T18:30:41;11.00;99.90
76203;DHT22;64985;46.364;17.008;2023-04-24T18:33:44;10.90;99.90
76203;DHT22;64985;46.364;17.008;2023-04-24T18:36:47;10.90;99.90
76203;DHT22;64985;46.364;17.008;2023-04-24T18:39:50;10.90;99.90
76203;DHT22;64985;46.364;17.008;2023-04-24T18:42:56;11.00;99.90
76203;DHT22;64985;46.364;17.008;2023-04-24T18:45:59;11.00;99.90
76203;DHT22;64985;46.364;17.008;2023-04-24T18:49:03;10.90;99.90
76203;DHT22;64985;46.364;17.008;2023-04-24T18:52:06;11.00;99.90
76203;DHT22;64985;46.364;17.008;2023-04-24T18:55:08;10.90;99.90
76203;DHT22;64985;46.364;17.008;2023-04-24T18:58:12;10.90;99.90
76203;DHT22;64985;46.364;17.008;2023-04-24T19:01:16;10.90;99.90
76203;DHT22;64985;46.364;17.008;2023-04-24T19:04:21;11.00;99.90
76203;DHT22;64985;46.364;17.008;2023-04-24T19:07:24;10.90;99.90
76203;DHT22;64985;46.364;17.008;2023-04-24T19:10:27;10.90;99.90